createdAt,value
2023-04-21T00:01:21.678Z,1
2023-04-21T00:03:21.849Z,1
2023-04-21T00:05:21.952Z,1
2023-04-21T00:07:22.227Z,1
2023-04-21T00:09:21.231Z,1
2023-04-21T00:11:21.609Z,1
2023-04-21T00:13:22.014Z,1
2023-04-21T00:15:21.455Z,1
2023-04-21T00:17:21.167Z,1
2023-04-21T00:19:21.317Z,1
2023-04-21T00:21:21.691Z,1
2023-04-21T00:23:21.809Z,1
2023-04-21T00:25:22.184Z,1
2023-04-21T00:27:21.105Z,1
2023-04-21T00:29:21.814Z,1
2023-04-21T00:31:21.867Z,1
2023-04-21T00:33:21.459Z,1
2023-04-21T00:35:21.624Z,1
2023-04-21T00:37:22.060Z,1
2023-04-21T00:39:21.606Z,1
2023-04-21T00:41:21.872Z,1
2023-04-21T00:43:22.470Z,1
2023-04-21T00:45:21.476Z,1
2023-04-21T00:47:21.923Z,1
2023-04-21T00:49:22.560Z,1
2023-04-21T00:51:21.143Z,1
2023-04-21T00:53:22.134Z,1
2023-04-21T00:55:21.876Z,1
2023-04-21T00:57:22.355Z,1
2023-04-21T00:59:22.189Z,1
2023-04-21T01:01:22.150Z,1
2023-04-21T01:03:21.573Z,1
2023-04-21T01:05:22.192Z,1
2023-04-21T01:07:21.720Z,1
2023-04-21T01:09:21.678Z,1
2023-04-21T01:11:21.277Z,1
2023-04-21T01:13:22.335Z,1
2023-04-21T01:15:21.416Z,1
2023-04-21T01:17:22.439Z,1
2023-04-21T01:19:21.923Z,1
2023-04-21T01:21:21.223Z,1
2023-04-21T01:23:22.466Z,1
2023-04-21T01:25:21.568Z,1
2023-04-21T01:27:21.439Z,1
2023-04-21T01:29:22.200Z,1
2023-04-21T01:31:21.166Z,1
2023-04-21T01:33:21.590Z,1
2023-04-21T01:35:21.197Z,1
2023-04-21T01:37:21.160Z,1
2023-04-21T01:39:21.326Z,1
2023-04-21T01:41:21.748Z,1
2023-04-21T01:43:21.214Z,1
2023-04-21T01:45:21.471Z,1
2023-04-21T01:47:21.205Z,1
2023-04-21T01:49:21.261Z,1
2023-04-21T01:51:21.400Z,1
2023-04-21T01:53:22.538Z,1
2023-04-21T01:55:21.222Z,1
2023-04-21T01:57:21.726Z,1
2023-04-21T01:59:21.606Z,1
2023-04-21T02:01:21.579Z,1
2023-04-21T02:03:21.559Z,1
2023-04-21T02:05:21.159Z,1
2023-04-21T02:07:21.221Z,1
2023-04-21T02:09:21.774Z,1
2023-04-21T02:11:22.400Z,1
2023-04-21T02:13:22.569Z,1
2023-04-21T02:15:21.655Z,1
2023-04-21T02:17:22.303Z,1
2023-04-21T02:19:21.896Z,1
2023-04-21T02:21:22.120Z,1
2023-04-21T02:23:21.278Z,1
2023-04-21T02:25:21.438Z,1
2023-04-21T02:27:21.644Z,1
2023-04-21T02:29:21.989Z,1
2023-04-21T02:31:21.181Z,1
2023-04-21T02:33:21.758Z,1
2023-04-21T02:35:21.363Z,1
2023-04-21T02:37:21.301Z,1
2023-04-21T02:39:21.385Z,1
2023-04-21T02:41:21.503Z,1
2023-04-21T02:43:22.229Z,1
2023-04-21T02:45:21.165Z,1
2023-04-21T02:47:21.788Z,1
2023-04-21T02:49:21.962Z,1
2023-04-21T02:51:22.201Z,1
2023-04-21T02:53:21.392Z,1
2023-04-21T02:55:21.245Z,1
2023-04-21T02:57:22.044Z,1
2023-04-21T02:59:21.386Z,1
2023-04-21T03:01:21.382Z,1
2023-04-21T03:03:21.314Z,1
2023-04-21T03:05:21.702Z,1
2023-04-21T03:07:21.790Z,1
2023-04-21T03:09:21.367Z,1
2023-04-21T03:11:21.785Z,1
2023-04-21T03:13:22.389Z,1
2023-04-21T03:15:21.512Z,1
2023-04-21T03:17:22.422Z,1
2023-04-21T03:19:21.569Z,1
2023-04-21T03:21:21.195Z,1
2023-04-21T03:23:21.924Z,1
2023-04-21T03:25:22.478Z,1
2023-04-21T03:27:21.284Z,1
2023-04-21T03:29:22.583Z,0
2023-04-21T03:31:21.337Z,0
2023-04-21T03:33:21.694Z,0
2023-04-21T03:35:22.578Z,0
2023-04-21T03:37:22.866Z,0.1
2023-04-21T03:39:21.857Z,0.1
2023-04-21T03:41:22.558Z,0.1
2023-04-21T03:43:22.506Z,0.2
2023-04-21T03:45:21.660Z,0.3
2023-04-21T03:47:22.588Z,0.4
2023-04-21T03:49:22.283Z,0.5
2023-04-21T03:51:21.570Z,0.7
2023-04-21T03:53:21.839Z,1.1
2023-04-21T03:55:22.404Z,1.6
2023-04-21T03:57:21.389Z,2.1
2023-04-21T03:59:22.451Z,3.3
2023-04-21T04:01:22.535Z,5
2023-04-21T04:03:23.285Z,6.7
2023-04-21T04:05:21.724Z,9
2023-04-21T04:07:21.562Z,12.2
2023-04-21T04:09:21.556Z,15.6
2023-04-21T04:11:22.050Z,19.1
2023-04-21T04:13:21.328Z,23.3
2023-04-21T04:15:22.586Z,28.5
2023-04-21T04:17:22.305Z,34.8
2023-04-21T04:19:21.741Z,47
2023-04-21T04:21:21.667Z,63.4
2023-04-21T04:23:21.499Z,66.7
2023-04-21T04:25:22.562Z,77.5
2023-04-21T04:27:21.332Z,99.5
2023-04-21T04:29:22.154Z,121.5
2023-04-21T04:31:21.654Z,141.2
2023-04-21T04:33:21.946Z,164
2023-04-21T04:35:21.345Z,190.6
2023-04-21T04:37:22.168Z,210.6
2023-04-21T04:39:21.790Z,244.7
2023-04-21T04:41:21.996Z,257.2
2023-04-21T04:43:21.634Z,298.9
2023-04-21T04:45:21.667Z,347.2
2023-04-21T04:47:22.423Z,383.8
2023-04-21T04:49:22.906Z,403.4
2023-04-21T04:51:21.643Z,424.1
2023-04-21T04:53:22.397Z,468.7
2023-04-21T04:55:25.479Z,492.7
2023-04-21T04:57:22.655Z,518
2023-04-21T04:59:21.661Z,572.5
2023-04-21T05:01:21.851Z,632.7
2023-04-21T05:03:22.503Z,699.2
2023-04-21T05:05:21.771Z,699.2
2023-04-21T05:07:22.234Z,699.2
2023-04-21T05:09:21.101Z,772.8
2023-04-21T05:11:21.310Z,812.4
2023-04-21T05:13:21.840Z,897.8
2023-04-21T05:15:21.609Z,943.9
2023-04-21T05:17:21.322Z,943.9
2023-04-21T05:19:21.533Z,1096.6
2023-04-21T05:21:21.650Z,1152.9
2023-04-21T05:23:22.232Z,1212
2023-04-21T05:25:22.584Z,1274.1
2023-04-21T05:27:21.359Z,1339.4
2023-04-21T05:29:21.202Z,1480.3
2023-04-21T05:31:21.125Z,1556.2
2023-04-21T05:33:22.620Z,1636
2023-04-21T05:35:21.229Z,1556.2
2023-04-21T05:37:22.609Z,1636
2023-04-21T05:39:22.649Z,1719.9
2023-04-21T05:41:22.691Z,1808
2023-04-21T05:43:21.275Z,1808
2023-04-21T05:45:22.199Z,1719.9
2023-04-21T05:47:21.696Z,1808
2023-04-21T05:49:21.228Z,1900.7
2023-04-21T05:51:21.603Z,1998.2
2023-04-21T05:53:21.658Z,2321.6
2023-04-21T05:55:21.584Z,2100.6
2023-04-21T05:57:22.110Z,1998.2
2023-04-21T05:59:21.077Z,1998.2
2023-04-21T06:01:21.252Z,2100.6
2023-04-21T06:03:21.848Z,2208.3
2023-04-21T06:05:22.564Z,2440.6
2023-04-21T06:07:21.679Z,4230.2
2023-04-21T06:09:21.324Z,4230.2
2023-04-21T06:11:22.031Z,3641
2023-04-21T06:13:21.608Z,3641
2023-04-21T06:15:21.986Z,3294.5
2023-04-21T06:17:21.088Z,3133.8
2023-04-21T06:19:21.965Z,2697.3
2023-04-21T06:21:21.393Z,2321.6
2023-04-21T06:23:21.777Z,2321.6
2023-04-21T06:25:22.076Z,2440.6
2023-04-21T06:27:21.060Z,2321.6
2023-04-21T06:29:21.277Z,2321.6
2023-04-21T06:31:21.235Z,2440.6
2023-04-21T06:33:22.521Z,2565.7
2023-04-21T06:35:21.756Z,3294.5
2023-04-21T06:37:21.739Z,2981
2023-04-21T06:39:21.992Z,2697.3
2023-04-21T06:41:22.961Z,2565.7
2023-04-21T06:43:21.684Z,2440.6
2023-04-21T06:45:21.746Z,2565.7
2023-04-21T06:47:21.842Z,2697.3
2023-04-21T06:49:21.766Z,2697.3
2023-04-21T06:51:21.275Z,2697.3
2023-04-21T06:53:22.340Z,2835.6
2023-04-21T06:55:22.205Z,2981
2023-04-21T06:57:21.929Z,2835.6
2023-04-21T06:59:21.457Z,2835.6
2023-04-21T07:01:21.679Z,2697.3
2023-04-21T07:03:21.586Z,2981
2023-04-21T07:05:22.185Z,3133.8
2023-04-21T07:07:22.458Z,3463.4
2023-04-21T07:09:21.469Z,3463.4
2023-04-21T07:11:21.531Z,3463.4
2023-04-21T07:13:21.182Z,3294.5
2023-04-21T07:15:21.959Z,3294.5
2023-04-21T07:17:21.622Z,3463.4
2023-04-21T07:19:21.318Z,3463.4
2023-04-21T07:21:21.104Z,3463.4
2023-04-21T07:23:21.093Z,3641
2023-04-21T07:25:21.186Z,3463.4
2023-04-21T07:27:22.127Z,3641
2023-04-21T07:29:21.548Z,3641
2023-04-21T07:31:21.288Z,3827.6
2023-04-21T07:33:21.632Z,3827.6
2023-04-21T07:35:21.951Z,4023.9
2023-04-21T07:37:21.773Z,4230.2
2023-04-21T07:39:22.572Z,4230.2
2023-04-21T07:41:21.112Z,4447.1
2023-04-21T07:43:21.694Z,4230.2
2023-04-21T07:45:21.749Z,4447.1
2023-04-21T07:47:22.425Z,4230.2
2023-04-21T07:49:22.222Z,4230.2
2023-04-21T07:51:21.703Z,4230.2
2023-04-21T07:53:21.268Z,4914.8
2023-04-21T07:55:21.931Z,5710.1
2023-04-21T07:57:21.230Z,6634.2
2023-04-21T07:59:21.345Z,8103.1
2023-04-21T08:01:21.562Z,8955.3
2023-04-21T08:03:22.958Z,9414.4
2023-04-21T08:05:21.300Z,9414.4
2023-04-21T08:07:21.801Z,9414.4
2023-04-21T08:09:22.084Z,7707.9
2023-04-21T08:11:21.658Z,6974.4
2023-04-21T08:13:22.501Z,6974.4
2023-04-21T08:15:22.336Z,6634.2
2023-04-21T08:17:21.640Z,5431.7
2023-04-21T08:19:21.976Z,5431.7
2023-04-21T08:21:21.697Z,6310.7
2023-04-21T08:23:22.025Z,8955.3
2023-04-21T08:25:21.847Z,6002.9
2023-04-21T08:27:21.191Z,5710.1
2023-04-21T08:29:21.306Z,4447.1
2023-04-21T08:31:21.720Z,4675.1
2023-04-21T08:33:22.144Z,5166.8
2023-04-21T08:35:21.296Z,4914.8
2023-04-21T08:37:21.950Z,5166.8
2023-04-21T08:39:22.308Z,4914.8
2023-04-21T08:41:21.962Z,4447.1
2023-04-21T08:43:21.381Z,4023.9
2023-04-21T08:45:21.987Z,4023.9
2023-04-21T08:47:21.908Z,3827.6
2023-04-21T08:49:21.653Z,4023.9
2023-04-21T08:51:22.347Z,4914.8
2023-04-21T08:53:21.555Z,5710.1
2023-04-21T08:55:21.754Z,5166.8
2023-04-21T08:57:21.344Z,5166.8
2023-04-21T08:59:22.516Z,5710.1
2023-04-21T09:01:21.217Z,6310.7
2023-04-21T09:03:25.797Z,6310.7
2023-04-21T09:05:21.565Z,6002.9
2023-04-21T09:07:21.694Z,6634.2
2023-04-21T09:09:21.833Z,6634.2
2023-04-21T09:11:21.951Z,7707.9
2023-04-21T09:13:21.676Z,7707.9
2023-04-21T09:15:22.078Z,8103.1
2023-04-21T09:17:22.048Z,8103.1
2023-04-21T09:19:21.652Z,7332
2023-04-21T09:21:21.724Z,6974.4
2023-04-21T09:23:22.337Z,7707.9
2023-04-21T09:25:21.555Z,7332
2023-04-21T09:27:21.445Z,7332
2023-04-21T09:29:21.424Z,7707.9
2023-04-21T09:31:22.054Z,8518.5
2023-04-21T09:33:29.290Z,7332
2023-04-21T09:35:21.117Z,6634.2
2023-04-21T09:37:21.272Z,7332
2023-04-21T09:39:36.037Z,8103.1
2023-04-21T09:41:21.611Z,9414.4
2023-04-21T09:43:21.455Z,9414.4
2023-04-21T09:45:32.723Z,8103.1
2023-04-21T09:47:21.295Z,7707.9
2023-04-21T09:49:21.329Z,7332
2023-04-21T09:51:32.616Z,7707.9
2023-04-21T09:53:21.865Z,8103.1
2023-04-21T09:55:21.273Z,7707.9
2023-04-21T09:57:21.343Z,8103.1
2023-04-21T09:59:23.027Z,8103.1
2023-04-21T10:01:21.297Z,8103.1
2023-04-21T10:03:21.247Z,7332
2023-04-21T10:05:22.515Z,7332
2023-04-21T10:07:22.162Z,7332
2023-04-21T10:09:22.536Z,7332
2023-04-21T10:11:21.397Z,8103.1
2023-04-21T10:13:21.996Z,8518.5
2023-04-21T10:15:21.176Z,8518.5
2023-04-21T10:17:21.307Z,10404.6
2023-04-21T10:19:21.319Z,10404.6
2023-04-21T10:21:21.175Z,11498.8
2023-04-21T10:23:21.321Z,10938
2023-04-21T10:25:22.092Z,8955.3
2023-04-21T10:27:21.736Z,7332
2023-04-21T10:29:21.644Z,6634.2
2023-04-21T10:31:21.778Z,6634.2
2023-04-21T10:33:21.117Z,6634.2
2023-04-21T10:35:22.038Z,6974.4
2023-04-21T10:37:22.101Z,7332
2023-04-21T10:39:22.743Z,7332
2023-04-21T10:41:21.828Z,7707.9
2023-04-21T10:43:21.369Z,8103.1
2023-04-21T10:45:21.526Z,8518.5
2023-04-21T10:47:22.484Z,8955.3
2023-04-21T10:49:21.751Z,8955.3
2023-04-21T10:51:21.769Z,8955.3
2023-04-21T10:53:21.462Z,8955.3
2023-04-21T10:55:21.509Z,8955.3
2023-04-21T10:57:21.987Z,9414.4
2023-04-21T10:59:21.304Z,9414.4
2023-04-21T11:01:21.530Z,9897.1
2023-04-21T11:03:21.954Z,10938
2023-04-21T11:05:21.823Z,10938
2023-04-21T11:07:21.437Z,11498.8
2023-04-21T11:09:21.460Z,12088.4
2023-04-21T11:11:21.220Z,12088.4
2023-04-21T11:13:22.459Z,12708.2
2023-04-21T11:15:21.503Z,13359.7
2023-04-21T11:17:21.521Z,13359.7
2023-04-21T11:19:21.164Z,12708.2
2023-04-21T11:21:21.771Z,12708.2
2023-04-21T11:23:22.556Z,12708.2
2023-04-21T11:25:21.830Z,12708.2
2023-04-21T11:27:21.480Z,12088.4
2023-04-21T11:29:22.371Z,12088.4
2023-04-21T11:31:21.736Z,12088.4
2023-04-21T11:33:21.485Z,12708.2
2023-04-21T11:35:21.816Z,12088.4
2023-04-21T11:37:21.618Z,12088.4
2023-04-21T11:39:22.634Z,12088.4
2023-04-21T11:41:21.887Z,12088.4
2023-04-21T11:43:21.452Z,12088.4
2023-04-21T11:45:22.582Z,11498.8
2023-04-21T11:47:21.320Z,11498.8
2023-04-21T11:49:21.308Z,10938
2023-04-21T11:51:22.514Z,10404.6
2023-04-21T11:53:22.621Z,8103.1
2023-04-21T11:55:21.259Z,8518.5
2023-04-21T11:57:22.088Z,12088.4
2023-04-21T11:59:24.261Z,12708.2
2023-04-21T12:01:22.591Z,12088.4
2023-04-21T12:03:21.509Z,11498.8
2023-04-21T12:05:21.748Z,11498.8
2023-04-21T12:07:22.477Z,11498.8
2023-04-21T12:09:21.437Z,10938
2023-04-21T12:11:21.823Z,11498.8
2023-04-21T12:13:22.272Z,12088.4
2023-04-21T12:15:22.995Z,12708.2
2023-04-21T12:17:21.684Z,12708.2
2023-04-21T12:19:21.221Z,11498.8
2023-04-21T12:21:21.758Z,11498.8
2023-04-21T12:23:21.437Z,12088.4
2023-04-21T12:25:21.775Z,11498.8
2023-04-21T12:27:21.283Z,11498.8
2023-04-21T12:29:21.434Z,10938
2023-04-21T12:31:21.899Z,10404.6
2023-04-21T12:33:22.412Z,10404.6
2023-04-21T12:35:21.950Z,9897.1
2023-04-21T12:37:21.473Z,9897.1
2023-04-21T12:39:21.414Z,9414.4
2023-04-21T12:41:21.404Z,9414.4
2023-04-21T12:43:21.769Z,9414.4
2023-04-21T12:45:21.353Z,9414.4
2023-04-21T12:47:21.886Z,9414.4
2023-04-21T12:49:21.185Z,8518.5
2023-04-21T12:51:22.394Z,8518.5
2023-04-21T12:53:21.948Z,8518.5
2023-04-21T12:55:21.216Z,8518.5
2023-04-21T12:57:22.178Z,8518.5
2023-04-21T12:59:21.770Z,8518.5
2023-04-21T13:01:22.889Z,8103.1
2023-04-21T13:03:22.779Z,8103.1
2023-04-21T13:05:21.395Z,8103.1
2023-04-21T13:07:22.109Z,8103.1
2023-04-21T13:09:22.329Z,8103.1
2023-04-21T13:11:21.888Z,8103.1
2023-04-21T13:13:21.956Z,8103.1
2023-04-21T13:15:21.494Z,8103.1
2023-04-21T13:17:21.258Z,8103.1
2023-04-21T13:19:21.577Z,8103.1
2023-04-21T13:21:21.380Z,8103.1
2023-04-21T13:23:21.710Z,8103.1
2023-04-21T13:25:22.268Z,8103.1
2023-04-21T13:27:21.741Z,8103.1
2023-04-21T13:29:21.742Z,8103.1
2023-04-21T13:31:22.072Z,8103.1
2023-04-21T13:33:21.743Z,8103.1
2023-04-21T13:35:21.765Z,7707.9
2023-04-21T13:37:21.143Z,7707.9
2023-04-21T13:39:21.298Z,7707.9
2023-04-21T13:41:22.141Z,7707.9
2023-04-21T13:43:21.410Z,7707.9
2023-04-21T13:45:21.650Z,7707.9
2023-04-21T13:47:21.688Z,7707.9
2023-04-21T13:49:21.499Z,7332
2023-04-21T13:51:22.005Z,7332
2023-04-21T13:53:21.745Z,7332
2023-04-21T13:55:21.729Z,7332
2023-04-21T13:57:22.029Z,7332
2023-04-21T13:59:21.348Z,7332
2023-04-21T14:01:22.017Z,7332
2023-04-21T14:03:22.252Z,7332
2023-04-21T14:05:22.145Z,7332
2023-04-21T14:07:22.633Z,7332
2023-04-21T14:09:21.356Z,7332
2023-04-21T14:11:21.531Z,7332
2023-04-21T14:13:34.474Z,7332
2023-04-21T14:15:22.094Z,7332
2023-04-21T14:17:21.572Z,7332
2023-04-21T14:19:22.034Z,6974.4
2023-04-21T14:21:21.771Z,6974.4
2023-04-21T14:23:21.186Z,6974.4
2023-04-21T14:25:21.545Z,6974.4
2023-04-21T14:27:21.658Z,6974.4
2023-04-21T14:29:22.035Z,6634.2
2023-04-21T14:31:22.354Z,6634.2
2023-04-21T14:33:21.407Z,6634.2
2023-04-21T14:35:21.891Z,6634.2
2023-04-21T14:37:21.314Z,6634.2
2023-04-21T14:39:22.067Z,6634.2
2023-04-21T14:41:21.402Z,6634.2
2023-04-21T14:43:22.027Z,6310.7
2023-04-21T14:45:21.724Z,6310.7
2023-04-21T14:47:21.814Z,6310.7
2023-04-21T14:49:22.047Z,6310.7
2023-04-21T14:51:21.891Z,6310.7
2023-04-21T14:53:21.519Z,6002.9
2023-04-21T14:55:21.689Z,6002.9
2023-04-21T14:57:22.189Z,6002.9
2023-04-21T14:59:21.839Z,6002.9
2023-04-21T15:01:23.951Z,6002.9
2023-04-21T15:03:21.767Z,6002.9
2023-04-21T15:05:21.722Z,6002.9
2023-04-21T15:07:24.104Z,5710.1
2023-04-21T15:09:22.106Z,5710.1
2023-04-21T15:11:22.030Z,5710.1
2023-04-21T15:13:21.571Z,5710.1
2023-04-21T15:15:21.705Z,5710.1
2023-04-21T15:17:21.835Z,5710.1
2023-04-21T15:19:23.270Z,5431.7
2023-04-21T15:21:21.870Z,5431.7
2023-04-21T15:23:21.166Z,5431.7
2023-04-21T15:25:21.724Z,5431.7
2023-04-21T15:27:22.075Z,5431.7
2023-04-21T15:29:22.011Z,5166.8
2023-04-21T15:31:21.253Z,5166.8
2023-04-21T15:33:21.387Z,5166.8
2023-04-21T15:35:22.137Z,5166.8
2023-04-21T15:37:24.297Z,5166.8
2023-04-21T15:39:21.974Z,5166.8
2023-04-21T15:41:21.931Z,5166.8
2023-04-21T15:43:24.380Z,4914.8
2023-04-21T15:45:21.744Z,4914.8
2023-04-21T15:47:21.444Z,4914.8
2023-04-21T15:49:23.086Z,4914.8
2023-04-21T15:51:21.434Z,4675.1
2023-04-21T15:53:21.886Z,4675.1
2023-04-21T15:55:22.472Z,4675.1
2023-04-21T15:57:22.316Z,4675.1
2023-04-21T15:59:22.449Z,4675.1
2023-04-21T16:01:22.195Z,4447.1
2023-04-21T16:03:21.535Z,4447.1
2023-04-21T16:05:22.466Z,4447.1
2023-04-21T16:07:21.253Z,4447.1
2023-04-21T16:09:21.711Z,4230.2
2023-04-21T16:11:23.137Z,4230.2
2023-04-21T16:13:21.464Z,4230.2
2023-04-21T16:15:24.091Z,4230.2
2023-04-21T16:17:23.444Z,4023.9
2023-04-21T16:19:21.436Z,4023.9
2023-04-21T16:21:21.270Z,4023.9
2023-04-21T16:23:22.212Z,3827.6
2023-04-21T16:25:22.218Z,3827.6
2023-04-21T16:27:22.013Z,3827.6
2023-04-21T16:29:21.913Z,3641
2023-04-21T16:31:21.392Z,3641
2023-04-21T16:33:21.820Z,3641
2023-04-21T16:35:21.919Z,3641
2023-04-21T16:37:21.182Z,3463.4
2023-04-21T16:39:21.514Z,3463.4
2023-04-21T16:41:21.353Z,3463.4
2023-04-21T16:43:21.279Z,3294.5
2023-04-21T16:45:21.772Z,3294.5
2023-04-21T16:47:21.968Z,3294.5
2023-04-21T16:49:22.213Z,3133.8
2023-04-21T16:51:21.965Z,3133.8
2023-04-21T16:53:22.194Z,2981
2023-04-21T16:55:22.241Z,2981
2023-04-21T16:57:22.150Z,2981
2023-04-21T16:59:21.362Z,2835.6
2023-04-21T17:01:21.876Z,2835.6
2023-04-21T17:03:22.445Z,2697.3
2023-04-21T17:05:22.148Z,2697.3
2023-04-21T17:07:21.369Z,2565.7
2023-04-21T17:09:21.921Z,2565.7
2023-04-21T17:11:21.245Z,2440.6
2023-04-21T17:13:21.817Z,2440.6
2023-04-21T17:15:21.881Z,2321.6
2023-04-21T17:17:21.998Z,2321.6
2023-04-21T17:19:21.456Z,2208.3
2023-04-21T17:21:21.875Z,2100.6
2023-04-21T17:23:22.252Z,1998.2
2023-04-21T17:25:21.692Z,1900.7
2023-04-21T17:27:21.711Z,1808
2023-04-21T17:29:22.408Z,1719.9
2023-04-21T17:31:21.950Z,1636
2023-04-21T17:33:21.998Z,1556.2
2023-04-21T17:35:22.104Z,1408.1
2023-04-21T17:37:21.985Z,1274.1
2023-04-21T17:39:21.507Z,1212
2023-04-21T17:41:22.577Z,1096.6
2023-04-21T17:43:21.780Z,1043.1
2023-04-21T17:45:21.823Z,943.9
2023-04-21T17:47:22.146Z,812.4
2023-04-21T17:49:21.890Z,632.7
2023-04-21T17:51:21.191Z,544.6
2023-04-21T17:53:21.822Z,492.7
2023-04-21T17:55:21.750Z,445.9
2023-04-21T17:57:21.303Z,403.4
2023-04-21T17:59:21.904Z,365
2023-04-21T18:01:22.170Z,314.2
2023-04-21T18:03:21.780Z,284.3
2023-04-21T18:05:21.347Z,244.7
2023-04-21T18:07:22.160Z,210.6
2023-04-21T18:09:21.642Z,181.3
2023-04-21T18:11:21.400Z,156
2023-04-21T18:13:21.687Z,127.7
2023-04-21T18:15:21.229Z,109.9
2023-04-21T18:17:22.220Z,85.6
2023-04-21T18:19:22.199Z,70.1
2023-04-21T18:21:22.172Z,54.6
2023-04-21T18:23:21.342Z,42.5
2023-04-21T18:25:34.329Z,33.1
2023-04-21T18:27:21.536Z,25.8
2023-04-21T18:29:22.074Z,18.2
2023-04-21T18:31:21.847Z,13.5
2023-04-21T18:33:21.187Z,9.5
2023-04-21T18:35:21.478Z,6.7
2023-04-21T18:37:21.446Z,4.7
2023-04-21T18:39:21.948Z,3.3
2023-04-21T18:41:21.303Z,2.3
2023-04-21T18:43:21.806Z,1.6
2023-04-21T18:45:21.871Z,1.1
2023-04-21T18:47:21.572Z,0.7
2023-04-21T18:49:21.992Z,0.5
2023-04-21T18:51:21.216Z,0.4
2023-04-21T18:53:21.543Z,0.3
2023-04-21T18:55:21.466Z,0.2
2023-04-21T18:57:21.567Z,0.1
2023-04-21T18:59:22.105Z,0.1
2023-04-21T19:01:21.776Z,0
2023-04-21T19:03:22.275Z,0
2023-04-21T19:05:21.596Z,0
2023-04-21T19:07:21.724Z,0
2023-04-21T19:09:21.783Z,0
2023-04-21T19:11:21.195Z,1
2023-04-21T19:13:21.404Z,1
2023-04-21T19:15:21.841Z,1
2023-04-21T19:17:22.158Z,1
2023-04-21T19:19:21.667Z,1
2023-04-21T19:21:22.119Z,1
2023-04-21T19:23:21.445Z,1
2023-04-21T19:25:22.138Z,1
2023-04-21T19:27:21.608Z,1
2023-04-21T19:29:21.491Z,1
2023-04-21T19:31:21.739Z,1
2023-04-21T19:33:22.165Z,1
2023-04-21T19:35:22.256Z,1
2023-04-21T19:37:21.857Z,1
2023-04-21T19:39:22.225Z,1
2023-04-21T19:41:21.663Z,1
2023-04-21T19:43:22.343Z,1
2023-04-21T19:45:22.025Z,1
2023-04-21T19:47:21.946Z,1
2023-04-21T19:49:21.484Z,1
2023-04-21T19:51:21.438Z,1
2023-04-21T19:53:21.284Z,1
2023-04-21T19:55:21.899Z,1
2023-04-21T19:57:22.053Z,1
2023-04-21T19:59:21.482Z,1
2023-04-21T20:01:21.345Z,1
2023-04-21T20:03:22.075Z,1
2023-04-21T20:05:21.713Z,1
2023-04-21T20:07:22.095Z,1
2023-04-21T20:09:21.707Z,1
2023-04-21T20:11:22.056Z,1
2023-04-21T20:13:21.770Z,1
2023-04-21T20:15:21.959Z,1
2023-04-21T20:17:21.811Z,1
2023-04-21T20:19:21.582Z,1
2023-04-21T20:21:22.102Z,1
2023-04-21T20:23:21.855Z,1
2023-04-21T20:25:21.860Z,1
2023-04-21T20:27:21.935Z,1
2023-04-21T20:29:22.118Z,1
2023-04-21T20:31:21.946Z,1
2023-04-21T20:33:21.948Z,1
2023-04-21T20:35:21.283Z,1
2023-04-21T20:37:21.799Z,1
2023-04-21T20:39:21.272Z,1
2023-04-21T20:41:22.257Z,1
2023-04-21T20:43:21.920Z,1
2023-04-21T20:45:21.566Z,1
2023-04-21T20:47:21.381Z,1
2023-04-21T20:49:22.109Z,1
2023-04-21T20:51:21.340Z,1
2023-04-21T20:53:21.885Z,1
2023-04-21T20:55:21.548Z,1
2023-04-21T20:57:22.095Z,1
2023-04-21T20:59:21.534Z,1
2023-04-21T21:01:21.969Z,1
2023-04-21T21:03:21.775Z,1
2023-04-21T21:05:22.063Z,1
2023-04-21T21:07:21.770Z,1
2023-04-21T21:09:21.864Z,1
2023-04-21T21:11:21.864Z,1
2023-04-21T21:13:21.360Z,1
2023-04-21T21:15:22.189Z,1
2023-04-21T21:17:21.307Z,1
2023-04-21T21:19:21.748Z,1
2023-04-21T21:21:21.740Z,1
2023-04-21T21:23:21.457Z,1
2023-04-21T21:25:22.075Z,1
2023-04-21T21:27:21.982Z,1
2023-04-21T21:29:21.980Z,1
2023-04-21T21:31:21.317Z,1
2023-04-21T21:33:22.205Z,1
2023-04-21T21:35:21.344Z,1
2023-04-21T21:37:22.157Z,1
2023-04-21T21:39:21.699Z,1
2023-04-21T21:41:21.391Z,1
2023-04-21T21:43:22.190Z,1
2023-04-21T21:45:21.764Z,1
2023-04-21T21:47:22.210Z,1
2023-04-21T21:49:21.792Z,1
2023-04-21T21:51:21.592Z,1
2023-04-21T21:53:21.248Z,1
2023-04-21T21:55:22.266Z,1
2023-04-21T21:57:21.417Z,1
2023-04-21T21:59:21.457Z,1
2023-04-21T22:01:21.473Z,1
2023-04-21T22:03:21.935Z,1
2023-04-21T22:05:21.431Z,1
2023-04-21T22:07:21.973Z,1
2023-04-21T22:09:21.260Z,1
2023-04-21T22:11:21.992Z,1
2023-04-21T22:13:21.535Z,1
2023-04-21T22:15:21.913Z,1
2023-04-21T22:17:21.757Z,1
2023-04-21T22:19:22.276Z,1
2023-04-21T22:21:22.173Z,1
2023-04-21T22:23:21.524Z,1
2023-04-21T22:25:21.742Z,1
2023-04-21T22:27:21.748Z,1
2023-04-21T22:29:22.141Z,1
2023-04-21T22:31:21.983Z,1
2023-04-21T22:33:21.910Z,1
2023-04-21T22:35:21.951Z,1
2023-04-21T22:37:22.134Z,1
2023-04-21T22:39:21.820Z,1
2023-04-21T22:41:22.077Z,1
2023-04-21T22:43:21.384Z,1
2023-04-21T22:45:21.303Z,1
2023-04-21T22:47:22.135Z,1
2023-04-21T22:49:21.409Z,1
2023-04-21T22:51:21.496Z,1
2023-04-21T22:53:21.802Z,1
2023-04-21T22:55:21.725Z,1
2023-04-21T22:57:21.881Z,1
2023-04-21T22:59:21.521Z,1
2023-04-21T23:01:21.723Z,1
2023-04-21T23:03:22.097Z,1
2023-04-21T23:05:21.748Z,1
2023-04-21T23:07:21.462Z,1
2023-04-21T23:09:21.276Z,1
2023-04-21T23:11:21.869Z,1
2023-04-21T23:13:21.253Z,1
2023-04-21T23:15:21.897Z,1
2023-04-21T23:17:21.762Z,1
2023-04-21T23:19:21.774Z,1
2023-04-21T23:21:21.216Z,1
2023-04-21T23:23:22.069Z,1
2023-04-21T23:25:21.899Z,1
2023-04-21T23:27:22.322Z,1
2023-04-21T23:29:21.819Z,1
2023-04-21T23:31:21.504Z,1
2023-04-21T23:33:22.162Z,1
2023-04-21T23:35:21.745Z,1
2023-04-21T23:37:22.094Z,1
2023-04-21T23:39:21.574Z,1
2023-04-21T23:41:21.824Z,1
2023-04-21T23:43:22.134Z,1
2023-04-21T23:45:21.803Z,1
2023-04-21T23:47:22.038Z,1
2023-04-21T23:49:21.411Z,1
2023-04-21T23:51:21.555Z,1
2023-04-21T23:53:21.766Z,1
2023-04-21T23:55:21.794Z,1
2023-04-21T23:57:21.890Z,1
2023-04-21T23:59:22.000Z,1
